sensor_id;sensor_type;location;lat;lon;timestamp;pressure;altitude;pressure_sealevel;temperature;humidity
62436;BME280;48480;50.252;18.848;2023-03-14T00:00:07;97181.46;;;9.65;55.39
62436;BME280;48480;50.252;18.848;2023-03-14T00:02:34;97170.92;;;9.66;55.46
62436;BME280;48480;50.252;18.848;2023-03-14T00:05:00;97159.71;;;9.66;55.46
62436;BME280;48480;50.252;18.848;2023-03-14T00:07:27;97152.55;;;9.68;55.34
62436;BME280;48480;50.252;18.848;2023-03-14T00:09:53;97147.04;;;9.70;55.31
62436;BME280;48480;50.252;18.848;2023-03-14T00:12:18;97137.83;;;9.72;55.28
62436;BME280;48480;50.252;18.848;2023-03-14T00:14:44;97121.48;;;9.76;55.25
62436;BME280;48480;50.252;18.848;2023-03-14T00:17:09;97107.68;;;9.78;55.19
62436;BME280;48480;50.252;18.848;2023-03-14T00:19:35;97095.02;;;9.80;55.12
62436;BME280;48480;50.252;18.848;2023-03-14T00:22:00;97083.84;;;9.82;55.06
62436;BME280;48480;50.252;18.848;2023-03-14T00:24:26;97079.70;;;9.85;55.03
62436;BME280;48480;50.252;18.848;2023-03-14T00:26:51;97082.91;;;9.90;54.95
62436;BME280;48480;50.252;18.848;2023-03-14T00:29:16;97078.42;;;9.95;54.93
62436;BME280;48480;50.252;18.848;2023-03-14T00:31:42;97071.06;;;9.97;54.83
62436;BME280;48480;50.252;18.848;2023-03-14T00:34:07;97074.20;;;10.00;54.62
62436;BME280;48480;50.252;18.848;2023-03-14T00:36:33;97071.60;;;10.04;54.89
62436;BME280;48480;50.252;18.848;2023-03-14T00:38:58;97065.04;;;10.07;54.69
62436;BME280;48480;50.252;18.848;2023-03-14T00:41:23;97057.29;;;10.10;54.62
62436;BME280;48480;50.252;18.848;2023-03-14T00:43:50;97048.11;;;10.13;54.54
62436;BME280;48480;50.252;18.848;2023-03-14T00:46:16;97050.27;;;10.18;54.36
62436;BME280;48480;50.252;18.848;2023-03-14T00:48:44;97054.31;;;10.20;54.28
62436;BME280;48480;50.252;18.848;2023-03-14T00:51:11;97045.79;;;10.22;54.29
62436;BME280;48480;50.252;18.848;2023-03-14T00:53:39;97032.20;;;10.24;54.29
62436;BME280;48480;50.252;18.848;2023-03-14T00:56:07;97025.95;;;10.26;54.16
62436;BME280;48480;50.252;18.848;2023-03-14T00:58:33;97031.96;;;10.27;54.16
62436;BME280;48480;50.252;18.848;2023-03-14T01:00:58;97029.59;;;10.27;54.18
62436;BME280;48480;50.252;18.848;2023-03-14T01:03:24;97031.77;;;10.25;54.27
62436;BME280;48480;50.252;18.848;2023-03-14T01:05:50;97033.05;;;10.24;54.24
62436;BME280;48480;50.252;18.848;2023-03-14T01:08:16;97037.15;;;10.23;54.32
62436;BME280;48480;50.252;18.848;2023-03-14T01:10:41;97035.84;;;10.20;54.29
62436;BME280;48480;50.252;18.848;2023-03-14T01:13:08;97026.63;;;10.18;54.34
62436;BME280;48480;50.252;18.848;2023-03-14T01:15:35;97016.94;;;10.16;54.27
62436;BME280;48480;50.252;18.848;2023-03-14T01:18:01;97008.20;;;10.16;54.22
62436;BME280;48480;50.252;18.848;2023-03-14T01:20:27;96994.09;;;10.16;54.19
62436;BME280;48480;50.252;18.848;2023-03-14T01:22:53;96975.65;;;10.16;54.09
62436;BME280;48480;50.252;18.848;2023-03-14T01:25:19;96962.44;;;10.16;54.15
62436;BME280;48480;50.252;18.848;2023-03-14T01:27:44;96959.14;;;10.16;54.15
62436;BME280;48480;50.252;18.848;2023-03-14T01:30:11;96963.41;;;10.15;53.96
62436;BME280;48480;50.252;18.848;2023-03-14T01:32:37;96960.89;;;10.16;53.87
62436;BME280;48480;50.252;18.848;2023-03-14T01:35:03;96956.08;;;10.16;53.75
62436;BME280;48480;50.252;18.848;2023-03-14T01:37:28;96950.20;;;10.17;53.89
62436;BME280;48480;50.252;18.848;2023-03-14T01:39:54;96944.39;;;10.18;53.79
62436;BME280;48480;50.252;18.848;2023-03-14T01:42:19;96945.93;;;10.19;53.77
62436;BME280;48480;50.252;18.848;2023-03-14T01:44:59;96942.59;;;10.19;53.69
62436;BME280;48480;50.252;18.848;2023-03-14T01:47:26;96942.38;;;10.20;53.54
62436;BME280;48480;50.252;18.848;2023-03-14T01:50:07;96932.91;;;10.17;53.47
62436;BME280;48480;50.252;18.848;2023-03-14T01:52:46;96937.67;;;10.26;53.41
62436;BME280;48480;50.252;18.848;2023-03-14T01:55:20;96942.85;;;10.28;53.42
62436;BME280;48480;50.252;18.848;2023-03-14T01:57:56;96948.70;;;10.29;53.47
62436;BME280;48480;50.252;18.848;2023-03-14T02:00:24;96958.42;;;10.29;53.56
62436;BME280;48480;50.252;18.848;2023-03-14T02:02:52;96959.72;;;10.25;53.71
62436;BME280;48480;50.252;18.848;2023-03-14T02:05:23;96960.23;;;10.20;53.79
62436;BME280;48480;50.252;18.848;2023-03-14T02:07:52;96955.45;;;10.15;53.90
62436;BME280;48480;50.252;18.848;2023-03-14T02:10:21;96957.73;;;10.11;53.92
62436;BME280;48480;50.252;18.848;2023-03-14T02:12:48;96956.61;;;10.06;54.12
62436;BME280;48480;50.252;18.848;2023-03-14T02:15:14;96955.30;;;10.02;54.16
62436;BME280;48480;50.252;18.848;2023-03-14T02:17:44;96954.34;;;10.00;54.09
62436;BME280;48480;50.252;18.848;2023-03-14T02:22:40;96960.50;;;9.95;54.46
62436;BME280;48480;50.252;18.848;2023-03-14T02:28:05;96951.25;;;9.92;54.29
62436;BME280;48480;50.252;18.848;2023-03-14T02:30:32;96940.89;;;9.91;54.43
62436;BME280;48480;50.252;18.848;2023-03-14T02:33:07;96928.09;;;9.90;54.36
62436;BME280;48480;50.252;18.848;2023-03-14T02:36:02;96922.40;;;9.89;54.54
62436;BME280;48480;50.252;18.848;2023-03-14T02:41:07;96918.48;;;9.82;54.69
62436;BME280;48480;50.252;18.848;2023-03-14T02:43:32;96920.89;;;9.80;54.80
62436;BME280;48480;50.252;18.848;2023-03-14T02:45:58;96928.40;;;9.77;54.84
62436;BME280;48480;50.252;18.848;2023-03-14T02:48:30;96933.27;;;9.75;54.93
62436;BME280;48480;50.252;18.848;2023-03-14T02:50:59;96931.01;;;9.74;54.84
62436;BME280;48480;50.252;18.848;2023-03-14T02:53:28;96931.52;;;9.73;54.88
62436;BME280;48480;50.252;18.848;2023-03-14T02:55:54;96933.12;;;9.72;54.90
62436;BME280;48480;50.252;18.848;2023-03-14T02:58:20;96933.30;;;9.71;54.97
62436;BME280;48480;50.252;18.848;2023-03-14T03:00:45;96932.03;;;9.68;55.04
62436;BME280;48480;50.252;18.848;2023-03-14T03:03:11;96924.54;;;9.66;55.09
62436;BME280;48480;50.252;18.848;2023-03-14T03:05:37;96918.36;;;9.63;55.08
62436;BME280;48480;50.252;18.848;2023-03-14T03:08:03;96912.61;;;9.63;55.04
62436;BME280;48480;50.252;18.848;2023-03-14T03:10:29;96906.88;;;9.64;54.94
62436;BME280;48480;50.252;18.848;2023-03-14T03:12:54;96900.05;;;9.65;54.68
62436;BME280;48480;50.252;18.848;2023-03-14T03:15:20;96904.30;;;9.70;54.62
62436;BME280;48480;50.252;18.848;2023-03-14T03:17:45;96913.86;;;9.74;54.49
62436;BME280;48480;50.252;18.848;2023-03-14T03:20:11;96916.79;;;9.78;54.40
62436;BME280;48480;50.252;18.848;2023-03-14T03:22:37;96910.27;;;9.81;54.24
62436;BME280;48480;50.252;18.848;2023-03-14T03:25:04;96910.56;;;9.84;54.14
62436;BME280;48480;50.252;18.848;2023-03-14T03:27:31;96918.30;;;9.87;54.00
62436;BME280;48480;50.252;18.848;2023-03-14T03:29:57;96949.98;;;9.91;54.00
62436;BME280;48480;50.252;18.848;2023-03-14T03:32:22;96978.36;;;9.93;54.00
62436;BME280;48480;50.252;18.848;2023-03-14T03:34:48;96992.34;;;9.95;54.06
62436;BME280;48480;50.252;18.848;2023-03-14T03:37:13;96994.88;;;9.96;54.19
62436;BME280;48480;50.252;18.848;2023-03-14T03:39:39;97006.83;;;9.96;54.32
62436;BME280;48480;50.252;18.848;2023-03-14T03:42:04;97025.42;;;9.94;54.51
62436;BME280;48480;50.252;18.848;2023-03-14T03:44:30;97026.54;;;9.89;54.63
62436;BME280;48480;50.252;18.848;2023-03-14T03:46:55;97012.66;;;9.85;54.83
62436;BME280;48480;50.252;18.848;2023-03-14T03:49:21;97009.61;;;9.82;54.87
62436;BME280;48480;50.252;18.848;2023-03-14T03:51:46;97012.59;;;9.81;54.92
62436;BME280;48480;50.252;18.848;2023-03-14T03:54:12;97006.76;;;9.81;55.07
62436;BME280;48480;50.252;18.848;2023-03-14T03:56:37;97004.31;;;9.81;55.02
62436;BME280;48480;50.252;18.848;2023-03-14T03:59:03;96988.49;;;9.79;55.14
62436;BME280;48480;50.252;18.848;2023-03-14T04:01:28;96982.36;;;9.75;55.23
62436;BME280;48480;50.252;18.848;2023-03-14T04:03:54;96985.58;;;9.71;55.56
62436;BME280;48480;50.252;18.848;2023-03-14T04:06:19;96978.67;;;9.68;55.44
62436;BME280;48480;50.252;18.848;2023-03-14T04:08:45;96983.39;;;9.64;55.61
62436;BME280;48480;50.252;18.848;2023-03-14T04:11:10;96984.80;;;9.59;55.87
62436;BME280;48480;50.252;18.848;2023-03-14T04:13:36;96987.44;;;9.55;56.01
62436;BME280;48480;50.252;18.848;2023-03-14T04:16:01;96985.81;;;9.50;56.08
62436;BME280;48480;50.252;18.848;2023-03-14T04:18:27;96979.21;;;9.47;56.44
62436;BME280;48480;50.252;18.848;2023-03-14T04:20:56;96976.79;;;9.42;56.72
62436;BME280;48480;50.252;18.848;2023-03-14T04:23:23;96970.98;;;9.36;57.08
62436;BME280;48480;50.252;18.848;2023-03-14T04:25:53;96956.71;;;9.28;57.69
62436;BME280;48480;50.252;18.848;2023-03-14T04:28:19;96956.96;;;9.20;57.87
62436;BME280;48480;50.252;18.848;2023-03-14T04:30:44;96961.74;;;9.13;58.05
62436;BME280;48480;50.252;18.848;2023-03-14T04:33:10;96951.92;;;9.06;58.47
62436;BME280;48480;50.252;18.848;2023-03-14T04:35:36;96943.27;;;8.99;58.86
62436;BME280;48480;50.252;18.848;2023-03-14T04:38:01;96937.95;;;8.91;58.66
62436;BME280;48480;50.252;18.848;2023-03-14T04:40:28;96933.21;;;8.83;58.74
62436;BME280;48480;50.252;18.848;2023-03-14T04:42:53;96926.05;;;8.86;58.53
62436;BME280;48480;50.252;18.848;2023-03-14T04:45:18;96907.78;;;8.86;58.34
62436;BME280;48480;50.252;18.848;2023-03-14T04:47:44;96900.73;;;8.86;58.28
62436;BME280;48480;50.252;18.848;2023-03-14T04:50:10;96898.89;;;8.85;58.26
62436;BME280;48480;50.252;18.848;2023-03-14T04:52:35;96902.16;;;8.82;58.50
62436;BME280;48480;50.252;18.848;2023-03-14T04:55:01;96903.77;;;8.78;58.69
62436;BME280;48480;50.252;18.848;2023-03-14T04:57:26;96904.08;;;8.73;58.84
62436;BME280;48480;50.252;18.848;2023-03-14T04:59:52;96919.52;;;8.68;59.11
62436;BME280;48480;50.252;18.848;2023-03-14T05:02:17;96924.47;;;8.65;59.24
62436;BME280;48480;50.252;18.848;2023-03-14T05:04:43;96922.95;;;8.60;59.17
62436;BME280;48480;50.252;18.848;2023-03-14T05:07:08;96916.86;;;8.55;59.25
62436;BME280;48480;50.252;18.848;2023-03-14T05:09:33;96917.24;;;8.52;59.24
62436;BME280;48480;50.252;18.848;2023-03-14T05:11:59;96913.69;;;8.50;59.48
62436;BME280;48480;50.252;18.848;2023-03-14T05:14:24;96909.45;;;8.49;59.44
62436;BME280;48480;50.252;18.848;2023-03-14T05:16:50;96907.77;;;8.52;59.16
62436;BME280;48480;50.252;18.848;2023-03-14T05:19:15;96899.78;;;8.59;58.95
62436;BME280;48480;50.252;18.848;2023-03-14T05:21:41;96891.70;;;8.65;58.70
62436;BME280;48480;50.252;18.848;2023-03-14T05:24:06;96886.53;;;8.71;58.56
62436;BME280;48480;50.252;18.848;2023-03-14T05:26:32;96870.94;;;8.76;58.45
62436;BME280;48480;50.252;18.848;2023-03-14T05:28:57;96868.23;;;8.81;58.34
62436;BME280;48480;50.252;18.848;2023-03-14T05:31:23;96864.59;;;8.85;58.22
62436;BME280;48480;50.252;18.848;2023-03-14T05:33:48;96863.27;;;8.87;58.09
62436;BME280;48480;50.252;18.848;2023-03-14T05:36:13;96865.67;;;8.89;57.97
62436;BME280;48480;50.252;18.848;2023-03-14T05:38:39;96873.87;;;8.89;57.95
62436;BME280;48480;50.252;18.848;2023-03-14T05:41:04;96877.42;;;8.91;58.02
62436;BME280;48480;50.252;18.848;2023-03-14T05:43:30;96881.30;;;8.93;57.96
62436;BME280;48480;50.252;18.848;2023-03-14T05:45:55;96880.72;;;8.97;57.81
62436;BME280;48480;50.252;18.848;2023-03-14T05:48:21;96873.10;;;9.01;57.74
62436;BME280;48480;50.252;18.848;2023-03-14T05:50:47;96874.98;;;9.05;57.63
62436;BME280;48480;50.252;18.848;2023-03-14T05:53:14;96867.33;;;9.12;57.41
62436;BME280;48480;50.252;18.848;2023-03-14T05:55:40;96858.69;;;9.18;57.33
62436;BME280;48480;50.252;18.848;2023-03-14T05:58:05;96844.07;;;9.17;57.24
62436;BME280;48480;50.252;18.848;2023-03-14T06:00:31;96848.90;;;9.27;57.00
62436;BME280;48480;50.252;18.848;2023-03-14T06:02:57;96836.48;;;9.31;56.88
62436;BME280;48480;50.252;18.848;2023-03-14T06:05:22;96837.52;;;9.37;56.83
62436;BME280;48480;50.252;18.848;2023-03-14T06:07:48;96840.18;;;9.43;56.69
62436;BME280;48480;50.252;18.848;2023-03-14T06:10:19;96831.13;;;9.48;56.62
62436;BME280;48480;50.252;18.848;2023-03-14T06:12:44;96836.36;;;9.52;56.39
62436;BME280;48480;50.252;18.848;2023-03-14T06:15:10;96839.45;;;9.58;56.11
62436;BME280;48480;50.252;18.848;2023-03-14T06:17:35;96839.66;;;9.63;56.02
62436;BME280;48480;50.252;18.848;2023-03-14T06:20:00;96840.00;;;9.69;56.01
62436;BME280;48480;50.252;18.848;2023-03-14T06:22:26;96835.76;;;9.74;55.80
62436;BME280;48480;50.252;18.848;2023-03-14T06:25:00;96834.35;;;9.80;55.67
62436;BME280;48480;50.252;18.848;2023-03-14T06:27:26;96822.45;;;9.85;55.56
62436;BME280;48480;50.252;18.848;2023-03-14T06:29:51;96820.48;;;9.89;55.42
62436;BME280;48480;50.252;18.848;2023-03-14T06:32:17;96815.85;;;9.94;55.45
62436;BME280;48480;50.252;18.848;2023-03-14T06:34:43;96804.48;;;9.97;55.44
62436;BME280;48480;50.252;18.848;2023-03-14T06:37:29;96796.06;;;10.00;55.19
62436;BME280;48480;50.252;18.848;2023-03-14T06:39:55;96782.41;;;10.03;55.08
62436;BME280;48480;50.252;18.848;2023-03-14T06:42:21;96786.86;;;10.07;54.97
62436;BME280;48480;50.252;18.848;2023-03-14T06:44:47;96790.35;;;10.13;54.94
62436;BME280;48480;50.252;18.848;2023-03-14T06:47:13;96789.11;;;10.20;54.81
62436;BME280;48480;50.252;18.848;2023-03-14T06:49:43;96793.29;;;10.26;54.47
62436;BME280;48480;50.252;18.848;2023-03-14T06:52:08;96788.81;;;10.35;54.51
62436;BME280;48480;50.252;18.848;2023-03-14T06:54:34;96787.15;;;10.44;54.26
62436;BME280;48480;50.252;18.848;2023-03-14T06:56:59;96783.41;;;10.53;54.07
62436;BME280;48480;50.252;18.848;2023-03-14T06:59:24;96788.52;;;10.61;53.81
62436;BME280;48480;50.252;18.848;2023-03-14T07:01:50;96795.47;;;10.64;53.64
62436;BME280;48480;50.252;18.848;2023-03-14T07:04:16;96788.30;;;10.65;53.43
62436;BME280;48480;50.252;18.848;2023-03-14T07:06:42;96779.52;;;10.67;53.54
62436;BME280;48480;50.252;18.848;2023-03-14T07:09:12;96784.88;;;10.68;53.47
62436;BME280;48480;50.252;18.848;2023-03-14T07:11:38;96798.64;;;10.70;53.41
62436;BME280;48480;50.252;18.848;2023-03-14T07:14:07;96800.21;;;10.73;53.32
62436;BME280;48480;50.252;18.848;2023-03-14T07:16:44;96797.92;;;10.77;53.29
62436;BME280;48480;50.252;18.848;2023-03-14T07:19:10;96800.23;;;10.82;53.12
62436;BME280;48480;50.252;18.848;2023-03-14T07:21:36;96812.42;;;10.87;53.04
62436;BME280;48480;50.252;18.848;2023-03-14T07:24:02;96824.27;;;10.93;52.87
62436;BME280;48480;50.252;18.848;2023-03-14T07:26:28;96825.67;;;10.99;52.88
62436;BME280;48480;50.252;18.848;2023-03-14T07:28:53;96821.27;;;11.07;52.94
62436;BME280;48480;50.252;18.848;2023-03-14T07:31:19;96823.02;;;11.15;52.92
62436;BME280;48480;50.252;18.848;2023-03-14T07:33:45;96834.98;;;11.20;52.64
62436;BME280;48480;50.252;18.848;2023-03-14T07:36:11;96836.81;;;11.25;52.44
62436;BME280;48480;50.252;18.848;2023-03-14T07:38:36;96837.55;;;11.27;52.26
62436;BME280;48480;50.252;18.848;2023-03-14T07:41:04;96841.13;;;11.29;52.28
62436;BME280;48480;50.252;18.848;2023-03-14T07:43:30;96843.33;;;11.34;52.45
62436;BME280;48480;50.252;18.848;2023-03-14T07:45:59;96845.16;;;11.39;52.31
62436;BME280;48480;50.252;18.848;2023-03-14T07:48:25;96844.83;;;11.46;52.45
62436;BME280;48480;50.252;18.848;2023-03-14T07:50:52;96847.17;;;11.59;52.12
62436;BME280;48480;50.252;18.848;2023-03-14T07:53:18;96840.60;;;11.77;52.03
62436;BME280;48480;50.252;18.848;2023-03-14T07:55:44;96842.27;;;12.07;51.60
62436;BME280;48480;50.252;18.848;2023-03-14T07:58:09;96845.80;;;12.51;50.88
62436;BME280;48480;50.252;18.848;2023-03-14T08:00:41;96835.65;;;13.02;49.70
62436;BME280;48480;50.252;18.848;2023-03-14T08:03:06;96831.93;;;13.42;49.10
62436;BME280;48480;50.252;18.848;2023-03-14T08:05:36;96838.08;;;13.62;48.16
62436;BME280;48480;50.252;18.848;2023-03-14T08:08:02;96839.84;;;13.61;47.88
62436;BME280;48480;50.252;18.848;2023-03-14T08:10:28;96842.41;;;13.54;48.12
62436;BME280;48480;50.252;18.848;2023-03-14T08:13:02;96842.30;;;13.50;48.06
62436;BME280;48480;50.252;18.848;2023-03-14T08:15:29;96846.30;;;13.51;48.10
62436;BME280;48480;50.252;18.848;2023-03-14T08:17:55;96851.40;;;13.62;47.92
62436;BME280;48480;50.252;18.848;2023-03-14T08:20:22;96859.86;;;13.85;47.68
62436;BME280;48480;50.252;18.848;2023-03-14T08:22:49;96866.41;;;14.10;47.35
62436;BME280;48480;50.252;18.848;2023-03-14T08:25:20;96868.84;;;14.35;46.68
62436;BME280;48480;50.252;18.848;2023-03-14T08:27:50;96861.29;;;14.69;45.68
62436;BME280;48480;50.252;18.848;2023-03-14T08:30:17;96862.98;;;14.96;45.25
62436;BME280;48480;50.252;18.848;2023-03-14T08:32:43;96856.93;;;15.17;44.79
62436;BME280;48480;50.252;18.848;2023-03-14T08:35:09;96853.54;;;15.42;45.10
62436;BME280;48480;50.252;18.848;2023-03-14T08:37:35;96850.52;;;15.83;44.57
62436;BME280;48480;50.252;18.848;2023-03-14T08:40:05;96853.86;;;16.16;43.79
62436;BME280;48480;50.252;18.848;2023-03-14T08:42:32;96854.66;;;16.30;42.73
62436;BME280;48480;50.252;18.848;2023-03-14T08:44:58;96850.76;;;16.23;42.81
62436;BME280;48480;50.252;18.848;2023-03-14T08:47:23;96849.25;;;16.03;42.87
62436;BME280;48480;50.252;18.848;2023-03-14T08:49:48;96842.59;;;15.73;43.32
62436;BME280;48480;50.252;18.848;2023-03-14T08:52:14;96843.89;;;15.42;43.62
62436;BME280;48480;50.252;18.848;2023-03-14T08:54:44;96848.41;;;15.06;44.09
62436;BME280;48480;50.252;18.848;2023-03-14T08:57:10;96851.48;;;14.66;44.76
62436;BME280;48480;50.252;18.848;2023-03-14T08:59:36;96855.34;;;14.32;45.49
62436;BME280;48480;50.252;18.848;2023-03-14T09:02:01;96858.67;;;14.05;46.20
62436;BME280;48480;50.252;18.848;2023-03-14T09:04:29;96864.04;;;13.88;46.66
62436;BME280;48480;50.252;18.848;2023-03-14T09:07:05;96865.70;;;13.72;47.12
62436;BME280;48480;50.252;18.848;2023-03-14T09:09:31;96866.55;;;13.59;47.53
62436;BME280;48480;50.252;18.848;2023-03-14T09:11:56;96881.39;;;13.49;48.03
62436;BME280;48480;50.252;18.848;2023-03-14T09:14:22;96881.86;;;13.41;48.28
62436;BME280;48480;50.252;18.848;2023-03-14T09:16:48;96879.40;;;13.32;48.53
62436;BME280;48480;50.252;18.848;2023-03-14T09:19:14;96880.52;;;13.23;48.70
62436;BME280;48480;50.252;18.848;2023-03-14T09:21:43;96878.96;;;13.12;49.12
62436;BME280;48480;50.252;18.848;2023-03-14T09:24:09;96887.81;;;13.05;49.26
62436;BME280;48480;50.252;18.848;2023-03-14T09:26:34;96893.89;;;12.97;49.41
62436;BME280;48480;50.252;18.848;2023-03-14T09:29:00;96891.61;;;12.92;49.67
62436;BME280;48480;50.252;18.848;2023-03-14T09:31:25;96875.63;;;12.87;49.63
62436;BME280;48480;50.252;18.848;2023-03-14T09:33:52;96873.83;;;12.91;49.75
62436;BME280;48480;50.252;18.848;2023-03-14T09:36:23;96872.48;;;12.95;49.60
62436;BME280;48480;50.252;18.848;2023-03-14T09:38:48;96858.44;;;12.98;49.61
62436;BME280;48480;50.252;18.848;2023-03-14T09:44:15;96869.89;;;13.13;49.58
62436;BME280;48480;50.252;18.848;2023-03-14T09:46:44;96870.21;;;13.22;49.58
62436;BME280;48480;50.252;18.848;2023-03-14T09:49:27;96878.43;;;13.35;49.46
62436;BME280;48480;50.252;18.848;2023-03-14T09:51:55;96880.65;;;13.53;49.21
62436;BME280;48480;50.252;18.848;2023-03-14T09:54:43;96883.75;;;13.66;49.15
62436;BME280;48480;50.252;18.848;2023-03-14T09:57:13;96875.20;;;13.78;48.90
62436;BME280;48480;50.252;18.848;2023-03-14T09:59:43;96877.69;;;13.89;48.42
62436;BME280;48480;50.252;18.848;2023-03-14T10:02:24;96906.90;;;13.93;48.39
62436;BME280;48480;50.252;18.848;2023-03-14T10:04:52;96915.65;;;13.90;48.70
62436;BME280;48480;50.252;18.848;2023-03-14T10:07:29;96905.55;;;13.86;48.63
62436;BME280;48480;50.252;18.848;2023-03-14T10:09:55;96906.66;;;13.81;48.82
62436;BME280;48480;50.252;18.848;2023-03-14T10:12:41;96901.71;;;13.79;49.06
62436;BME280;48480;50.252;18.848;2023-03-14T10:15:12;96909.20;;;13.72;49.25
62436;BME280;48480;50.252;18.848;2023-03-14T10:17:50;96923.45;;;13.63;49.35
62436;BME280;48480;50.252;18.848;2023-03-14T10:23:01;96929.15;;;13.37;50.24
62436;BME280;48480;50.252;18.848;2023-03-14T10:25:30;96919.33;;;13.26;50.49
62436;BME280;48480;50.252;18.848;2023-03-14T10:27:56;96917.05;;;13.14;50.67
62436;BME280;48480;50.252;18.848;2023-03-14T10:33:31;96918.86;;;12.90;51.31
62436;BME280;48480;50.252;18.848;2023-03-14T10:36:04;96919.20;;;12.78;51.56
62436;BME280;48480;50.252;18.848;2023-03-14T10:38:35;96918.80;;;12.70;51.93
62436;BME280;48480;50.252;18.848;2023-03-14T10:41:04;96913.72;;;12.63;51.99
62436;BME280;48480;50.252;18.848;2023-03-14T10:43:40;96918.41;;;12.56;52.10
62436;BME280;48480;50.252;18.848;2023-03-14T10:46:15;96920.19;;;12.51;52.30
62436;BME280;48480;50.252;18.848;2023-03-14T10:48:42;96912.92;;;12.48;52.42
62436;BME280;48480;50.252;18.848;2023-03-14T10:54:19;96912.48;;;12.42;52.64
62436;BME280;48480;50.252;18.848;2023-03-14T10:56:47;96913.95;;;12.38;52.72
62436;BME280;48480;50.252;18.848;2023-03-14T10:59:21;96916.83;;;12.36;52.83
62436;BME280;48480;50.252;18.848;2023-03-14T11:10:17;96927.10;;;12.16;54.02
62436;BME280;48480;50.252;18.848;2023-03-14T11:18:49;96922.55;;;12.04;55.06
62436;BME280;48480;50.252;18.848;2023-03-14T11:21:37;96925.35;;;12.01;55.54
62436;BME280;48480;50.252;18.848;2023-03-14T11:27:16;96929.08;;;11.94;56.43
62436;BME280;48480;50.252;18.848;2023-03-14T11:29:51;96920.82;;;11.87;56.77
62436;BME280;48480;50.252;18.848;2023-03-14T11:32:41;96918.93;;;11.80;56.83
62436;BME280;48480;50.252;18.848;2023-03-14T11:38:46;96919.34;;;11.66;57.25
62436;BME280;48480;50.252;18.848;2023-03-14T11:41:30;96917.09;;;11.60;57.40
62436;BME280;48480;50.252;18.848;2023-03-14T11:43:59;96923.60;;;11.55;57.66
62436;BME280;48480;50.252;18.848;2023-03-14T11:46:29;96931.34;;;11.50;57.80
62436;BME280;48480;50.252;18.848;2023-03-14T11:49:16;96931.07;;;11.47;58.08
62436;BME280;48480;50.252;18.848;2023-03-14T11:51:50;96930.17;;;11.44;58.14
62436;BME280;48480;50.252;18.848;2023-03-14T11:54:33;96926.95;;;11.40;58.38
62436;BME280;48480;50.252;18.848;2023-03-14T11:57:17;96927.02;;;11.35;58.50
62436;BME280;48480;50.252;18.848;2023-03-14T11:59:47;96921.36;;;11.31;58.48
62436;BME280;48480;50.252;18.848;2023-03-14T12:05:33;96918.55;;;11.28;58.62
62436;BME280;48480;50.252;18.848;2023-03-14T12:13:14;96911.83;;;11.21;59.26
62436;BME280;48480;50.252;18.848;2023-03-14T12:15:46;96906.42;;;11.18;59.34
62436;BME280;48480;50.252;18.848;2023-03-14T12:18:20;96901.29;;;11.18;59.49
62436;BME280;48480;50.252;18.848;2023-03-14T12:21:00;96902.03;;;11.17;59.52
62436;BME280;48480;50.252;18.848;2023-03-14T12:23:28;96902.78;;;11.16;59.70
62436;BME280;48480;50.252;18.848;2023-03-14T12:28:37;96898.63;;;11.16;59.85
62436;BME280;48480;50.252;18.848;2023-03-14T12:31:35;96893.98;;;11.17;60.08
62436;BME280;48480;50.252;18.848;2023-03-14T12:34:03;96895.65;;;11.21;60.23
62436;BME280;48480;50.252;18.848;2023-03-14T12:39:19;96888.80;;;11.29;60.89
62436;BME280;48480;50.252;18.848;2023-03-14T12:42:07;96880.29;;;11.33;61.63
62436;BME280;48480;50.252;18.848;2023-03-14T12:44:43;96880.91;;;11.38;61.73
62436;BME280;48480;50.252;18.848;2023-03-14T12:49:48;96884.37;;;11.48;61.69
62436;BME280;48480;50.252;18.848;2023-03-14T12:52:20;96881.25;;;11.50;62.17
62436;BME280;48480;50.252;18.848;2023-03-14T12:54:49;96874.63;;;11.53;62.47
62436;BME280;48480;50.252;18.848;2023-03-14T13:00:37;96883.13;;;11.57;62.68
62436;BME280;48480;50.252;18.848;2023-03-14T13:03:27;96887.22;;;11.53;62.68
62436;BME280;48480;50.252;18.848;2023-03-14T13:06:09;96889.11;;;11.52;62.98
62436;BME280;48480;50.252;18.848;2023-03-14T13:08:40;96885.11;;;11.52;63.35
62436;BME280;48480;50.252;18.848;2023-03-14T13:11:16;96884.40;;;11.50;63.67
62436;BME280;48480;50.252;18.848;2023-03-14T13:13:56;96886.68;;;11.48;63.91
62436;BME280;48480;50.252;18.848;2023-03-14T13:16:23;96884.83;;;11.48;64.19
62436;BME280;48480;50.252;18.848;2023-03-14T13:18:50;96879.77;;;11.43;64.32
62436;BME280;48480;50.252;18.848;2023-03-14T13:21:24;96884.28;;;11.38;64.71
62436;BME280;48480;50.252;18.848;2023-03-14T13:24:03;96882.47;;;11.35;64.98
62436;BME280;48480;50.252;18.848;2023-03-14T13:26:38;96884.16;;;11.29;65.35
62436;BME280;48480;50.252;18.848;2023-03-14T13:29:18;96890.27;;;11.24;65.50
62436;BME280;48480;50.252;18.848;2023-03-14T13:34:34;96901.21;;;11.15;66.08
62436;BME280;48480;50.252;18.848;2023-03-14T13:37:00;96909.28;;;11.12;66.31
62436;BME280;48480;50.252;18.848;2023-03-14T13:39:28;96911.98;;;11.07;66.65
62436;BME280;48480;50.252;18.848;2023-03-14T13:41:59;96905.91;;;11.03;66.91
62436;BME280;48480;50.252;18.848;2023-03-14T13:44:28;96904.73;;;10.97;67.25
62436;BME280;48480;50.252;18.848;2023-03-14T13:47:03;96916.39;;;10.93;67.56
62436;BME280;48480;50.252;18.848;2023-03-14T13:49:32;96921.05;;;10.88;68.09
62436;BME280;48480;50.252;18.848;2023-03-14T13:53:21;96905.83;;;10.74;68.53
62436;BME280;48480;50.252;18.848;2023-03-14T13:55:17;96913.63;;;10.72;69.19
62436;BME280;48480;50.252;18.848;2023-03-14T13:57:52;96908.65;;;10.65;69.50
62436;BME280;48480;50.252;18.848;2023-03-14T14:00:26;96906.11;;;10.61;69.97
62436;BME280;48480;50.252;18.848;2023-03-14T14:02:54;96901.89;;;10.57;70.34